sensor_id;sensor_type;location;lat;lon;timestamp;temperature;humidity
72602;DHT22;60644;55.858;37.390;2022-10-20T00:00:59;8.12;67.94
72602;DHT22;60644;55.858;37.390;2022-10-20T00:03:26;8.15;68.58
72602;DHT22;60644;55.858;37.390;2022-10-20T00:05:52;8.06;68.36
72602;DHT22;60644;55.858;37.390;2022-10-20T00:08:19;8.02;68.21
72602;DHT22;60644;55.858;37.390;2022-10-20T00:10:53;8.01;68.10
72602;DHT22;60644;55.858;37.390;2022-10-20T00:13:19;8.03;68.57
72602;DHT22;60644;55.858;37.390;2022-10-20T00:15:52;8.02;68.76
72602;DHT22;60644;55.858;37.390;2022-10-20T00:18:19;7.98;68.41
72602;DHT22;60644;55.858;37.390;2022-10-20T00:20:45;7.99;68.75
72602;DHT22;60644;55.858;37.390;2022-10-20T00:23:11;7.98;68.78
72602;DHT22;60644;55.858;37.390;2022-10-20T00:25:37;7.93;68.42
72602;DHT22;60644;55.858;37.390;2022-10-20T00:28:04;7.93;68.06
72602;DHT22;60644;55.858;37.390;2022-10-20T00:30:30;7.91;68.51
72602;DHT22;60644;55.858;37.390;2022-10-20T00:32:55;7.92;68.82
72602;DHT22;60644;55.858;37.390;2022-10-20T00:35:21;7.92;68.89
72602;DHT22;60644;55.858;37.390;2022-10-20T00:37:47;7.90;68.78
72602;DHT22;60644;55.858;37.390;2022-10-20T00:40:13;7.89;68.58
72602;DHT22;60644;55.858;37.390;2022-10-20T00:42:46;7.89;68.52
72602;DHT22;60644;55.858;37.390;2022-10-20T00:45:21;7.90;68.64
72602;DHT22;60644;55.858;37.390;2022-10-20T00:47:59;7.91;68.97
72602;DHT22;60644;55.858;37.390;2022-10-20T00:50:30;7.84;69.01
72602;DHT22;60644;55.858;37.390;2022-10-20T00:52:58;7.83;69.11
72602;DHT22;60644;55.858;37.390;2022-10-20T00:55:27;7.78;69.16
72602;DHT22;60644;55.858;37.390;2022-10-20T00:57:56;7.77;69.20
72602;DHT22;60644;55.858;37.390;2022-10-20T01:00:22;7.79;69.23
72602;DHT22;60644;55.858;37.390;2022-10-20T01:02:49;7.83;69.32
72602;DHT22;60644;55.858;37.390;2022-10-20T01:05:17;7.85;69.30
72602;DHT22;60644;55.858;37.390;2022-10-20T01:07:43;7.90;69.32
72602;DHT22;60644;55.858;37.390;2022-10-20T01:10:09;7.96;69.22
72602;DHT22;60644;55.858;37.390;2022-10-20T01:16:04;7.89;69.26
72602;DHT22;60644;55.858;37.390;2022-10-20T01:18:59;7.89;69.42
72602;DHT22;60644;55.858;37.390;2022-10-20T01:21:54;7.91;69.47
72602;DHT22;60644;55.858;37.390;2022-10-20T01:27:51;7.93;69.48
72602;DHT22;60644;55.858;37.390;2022-10-20T01:30:21;7.94;69.36
72602;DHT22;60644;55.858;37.390;2022-10-20T01:40:49;8.01;69.29
72602;DHT22;60644;55.858;37.390;2022-10-20T01:43:18;8.04;69.32
72602;DHT22;60644;55.858;37.390;2022-10-20T01:45:46;8.11;69.30
72602;DHT22;60644;55.858;37.390;2022-10-20T01:48:15;8.12;69.40
72602;DHT22;60644;55.858;37.390;2022-10-20T01:50:41;8.12;69.50
72602;DHT22;60644;55.858;37.390;2022-10-20T01:53:08;8.09;69.42
72602;DHT22;60644;55.858;37.390;2022-10-20T01:55:34;8.09;69.36
72602;DHT22;60644;55.858;37.390;2022-10-20T02:00:59;8.09;69.39
72602;DHT22;60644;55.858;37.390;2022-10-20T02:06:26;8.02;69.46
72602;DHT22;60644;55.858;37.390;2022-10-20T02:08:58;7.94;69.50
72602;DHT22;60644;55.858;37.390;2022-10-20T02:14:14;7.78;69.87
72602;DHT22;60644;55.858;37.390;2022-10-20T02:16:55;7.70;70.44
72602;DHT22;60644;55.858;37.390;2022-10-20T02:19:24;7.69;70.42
72602;DHT22;60644;55.858;37.390;2022-10-20T02:21:51;7.70;70.71
72602;DHT22;60644;55.858;37.390;2022-10-20T02:24:21;7.71;70.21
72602;DHT22;60644;55.858;37.390;2022-10-20T02:26:48;7.62;70.90
72602;DHT22;60644;55.858;37.390;2022-10-20T02:29:20;7.62;70.54
72602;DHT22;60644;55.858;37.390;2022-10-20T02:31:47;7.59;70.65
72602;DHT22;60644;55.858;37.390;2022-10-20T02:34:13;7.59;70.51
72602;DHT22;60644;55.858;37.390;2022-10-20T02:36:41;7.59;70.52
72602;DHT22;60644;55.858;37.390;2022-10-20T02:39:08;7.60;70.76
72602;DHT22;60644;55.858;37.390;2022-10-20T02:41:34;7.57;70.64
72602;DHT22;60644;55.858;37.390;2022-10-20T02:44:00;7.58;70.77
72602;DHT22;60644;55.858;37.390;2022-10-20T02:46:26;7.59;70.67
72602;DHT22;60644;55.858;37.390;2022-10-20T02:48:52;7.56;71.06
72602;DHT22;60644;55.858;37.390;2022-10-20T02:51:18;7.58;70.72
72602;DHT22;60644;55.858;37.390;2022-10-20T02:53:44;7.53;71.06
72602;DHT22;60644;55.858;37.390;2022-10-20T02:56:10;7.48;70.56
72602;DHT22;60644;55.858;37.390;2022-10-20T02:58:37;7.48;70.69
72602;DHT22;60644;55.858;37.390;2022-10-20T03:01:03;7.52;70.74
72602;DHT22;60644;55.858;37.390;2022-10-20T03:03:29;7.58;70.58
72602;DHT22;60644;55.858;37.390;2022-10-20T03:05:55;7.56;70.55
72602;DHT22;60644;55.858;37.390;2022-10-20T03:08:21;7.50;70.55
72602;DHT22;60644;55.858;37.390;2022-10-20T03:10:47;7.52;70.61
72602;DHT22;60644;55.858;37.390;2022-10-20T03:13:12;7.57;70.59
72602;DHT22;60644;55.858;37.390;2022-10-20T03:15:40;7.62;70.56
72602;DHT22;60644;55.858;37.390;2022-10-20T03:18:06;7.62;70.61
72602;DHT22;60644;55.858;37.390;2022-10-20T03:20:32;7.55;71.06
72602;DHT22;60644;55.858;37.390;2022-10-20T03:22:58;7.55;70.28
72602;DHT22;60644;55.858;37.390;2022-10-20T03:25:24;7.45;70.45
72602;DHT22;60644;55.858;37.390;2022-10-20T03:27:51;7.46;70.58
72602;DHT22;60644;55.858;37.390;2022-10-20T03:30:17;7.44;70.57
72602;DHT22;60644;55.858;37.390;2022-10-20T03:32:43;7.44;70.81
72602;DHT22;60644;55.858;37.390;2022-10-20T03:35:09;7.43;70.88
72602;DHT22;60644;55.858;37.390;2022-10-20T03:37:34;7.43;70.71
72602;DHT22;60644;55.858;37.390;2022-10-20T03:40:00;7.45;70.87
72602;DHT22;60644;55.858;37.390;2022-10-20T03:42:26;7.45;70.79
72602;DHT22;60644;55.858;37.390;2022-10-20T03:44:52;7.47;70.74
72602;DHT22;60644;55.858;37.390;2022-10-20T03:47:17;7.44;70.82
72602;DHT22;60644;55.858;37.390;2022-10-20T03:49:43;7.47;70.80
72602;DHT22;60644;55.858;37.390;2022-10-20T03:52:09;7.53;70.66
72602;DHT22;60644;55.858;37.390;2022-10-20T03:54:35;7.48;70.73
72602;DHT22;60644;55.858;37.390;2022-10-20T03:57:01;7.52;70.66
72602;DHT22;60644;55.858;37.390;2022-10-20T03:59:27;7.50;70.52
72602;DHT22;60644;55.858;37.390;2022-10-20T04:01:54;7.47;70.57
72602;DHT22;60644;55.858;37.390;2022-10-20T04:04:23;7.45;70.62
72602;DHT22;60644;55.858;37.390;2022-10-20T04:06:49;7.37;70.76
72602;DHT22;60644;55.858;37.390;2022-10-20T04:09:15;7.39;70.85
72602;DHT22;60644;55.858;37.390;2022-10-20T04:11:40;7.39;70.94
72602;DHT22;60644;55.858;37.390;2022-10-20T04:14:06;7.40;70.93
72602;DHT22;60644;55.858;37.390;2022-10-20T04:16:32;7.41;71.20
72602;DHT22;60644;55.858;37.390;2022-10-20T04:18:58;7.42;70.97
72602;DHT22;60644;55.858;37.390;2022-10-20T04:21:24;7.42;71.10
72602;DHT22;60644;55.858;37.390;2022-10-20T04:23:50;7.44;71.65
72602;DHT22;60644;55.858;37.390;2022-10-20T04:26:16;7.48;71.80
72602;DHT22;60644;55.858;37.390;2022-10-20T04:28:42;7.45;71.33
72602;DHT22;60644;55.858;37.390;2022-10-20T04:31:08;7.39;71.06
72602;DHT22;60644;55.858;37.390;2022-10-20T04:33:34;7.34;71.51
72602;DHT22;60644;55.858;37.390;2022-10-20T04:36:05;7.37;71.45
72602;DHT22;60644;55.858;37.390;2022-10-20T04:38:32;7.34;71.16
72602;DHT22;60644;55.858;37.390;2022-10-20T04:40:59;7.31;71.47
72602;DHT22;60644;55.858;37.390;2022-10-20T04:43:26;7.33;71.38
72602;DHT22;60644;55.858;37.390;2022-10-20T04:45:52;7.32;71.48
72602;DHT22;60644;55.858;37.390;2022-10-20T04:48:23;7.34;71.48
72602;DHT22;60644;55.858;37.390;2022-10-20T04:51:07;7.35;71.21
72602;DHT22;60644;55.858;37.390;2022-10-20T04:53:34;7.34;71.19
72602;DHT22;60644;55.858;37.390;2022-10-20T04:56:04;7.33;70.95
72602;DHT22;60644;55.858;37.390;2022-10-20T04:58:30;7.35;71.03
72602;DHT22;60644;55.858;37.390;2022-10-20T05:01:02;7.35;70.99
72602;DHT22;60644;55.858;37.390;2022-10-20T05:03:28;7.33;70.88
72602;DHT22;60644;55.858;37.390;2022-10-20T05:05:54;7.28;70.71
72602;DHT22;60644;55.858;37.390;2022-10-20T05:08:19;7.30;70.62
72602;DHT22;60644;55.858;37.390;2022-10-20T05:10:45;7.22;70.48
72602;DHT22;60644;55.858;37.390;2022-10-20T05:13:11;7.22;70.61
72602;DHT22;60644;55.858;37.390;2022-10-20T05:15:37;7.23;70.39
72602;DHT22;60644;55.858;37.390;2022-10-20T05:18:03;7.23;70.16
72602;DHT22;60644;55.858;37.390;2022-10-20T05:20:28;7.14;69.59
72602;DHT22;60644;55.858;37.390;2022-10-20T05:22:54;7.18;70.10
72602;DHT22;60644;55.858;37.390;2022-10-20T05:25:20;7.18;70.24
72602;DHT22;60644;55.858;37.390;2022-10-20T05:27:46;7.17;69.99
72602;DHT22;60644;55.858;37.390;2022-10-20T05:30:13;7.16;69.93
72602;DHT22;60644;55.858;37.390;2022-10-20T05:32:39;7.17;70.15
72602;DHT22;60644;55.858;37.390;2022-10-20T05:35:05;7.13;68.95
72602;DHT22;60644;55.858;37.390;2022-10-20T05:37:31;7.10;69.94
72602;DHT22;60644;55.858;37.390;2022-10-20T05:39:57;7.05;68.91
72602;DHT22;60644;55.858;37.390;2022-10-20T05:42:24;7.00;68.85
72602;DHT22;60644;55.858;37.390;2022-10-20T05:44:50;7.01;69.17
72602;DHT22;60644;55.858;37.390;2022-10-20T05:47:15;7.07;69.68
72602;DHT22;60644;55.858;37.390;2022-10-20T05:49:41;7.12;69.20
72602;DHT22;60644;55.858;37.390;2022-10-20T05:52:07;7.15;68.90
72602;DHT22;60644;55.858;37.390;2022-10-20T05:54:33;7.24;68.99
72602;DHT22;60644;55.858;37.390;2022-10-20T05:56:58;7.28;69.35
72602;DHT22;60644;55.858;37.390;2022-10-20T05:59:24;7.20;69.07
72602;DHT22;60644;55.858;37.390;2022-10-20T06:01:50;7.28;69.34
72602;DHT22;60644;55.858;37.390;2022-10-20T06:04:19;7.30;68.78
72602;DHT22;60644;55.858;37.390;2022-10-20T06:06:48;7.30;68.86
72602;DHT22;60644;55.858;37.390;2022-10-20T06:09:15;7.28;68.17
72602;DHT22;60644;55.858;37.390;2022-10-20T06:11:42;7.20;68.09
72602;DHT22;60644;55.858;37.390;2022-10-20T06:14:08;7.18;67.68
72602;DHT22;60644;55.858;37.390;2022-10-20T06:16:34;7.27;67.75
72602;DHT22;60644;55.858;37.390;2022-10-20T06:19:01;7.32;67.62
72602;DHT22;60644;55.858;37.390;2022-10-20T06:21:30;7.34;67.36
72602;DHT22;60644;55.858;37.390;2022-10-20T06:24:00;7.27;67.16
72602;DHT22;60644;55.858;37.390;2022-10-20T06:26:29;7.32;67.04
72602;DHT22;60644;55.858;37.390;2022-10-20T06:28:57;7.41;67.55
72602;DHT22;60644;55.858;37.390;2022-10-20T06:31:29;7.40;65.90
72602;DHT22;60644;55.858;37.390;2022-10-20T06:33:57;7.48;66.92
72602;DHT22;60644;55.858;37.390;2022-10-20T06:36:24;7.56;67.42
72602;DHT22;60644;55.858;37.390;2022-10-20T06:38:56;7.65;67.39
72602;DHT22;60644;55.858;37.390;2022-10-20T06:41:24;7.69;67.46
72602;DHT22;60644;55.858;37.390;2022-10-20T06:43:49;7.68;65.78
72602;DHT22;60644;55.858;37.390;2022-10-20T06:46:22;7.75;65.49
72602;DHT22;60644;55.858;37.390;2022-10-20T06:48:48;7.81;65.47
72602;DHT22;60644;55.858;37.390;2022-10-20T06:51:16;7.92;67.33
72602;DHT22;60644;55.858;37.390;2022-10-20T06:53:49;7.87;61.56
72602;DHT22;60644;55.858;37.390;2022-10-20T06:56:23;7.84;63.92
72602;DHT22;60644;55.858;37.390;2022-10-20T06:58:52;7.79;66.38
72602;DHT22;60644;55.858;37.390;2022-10-20T07:01:33;7.72;65.30
72602;DHT22;60644;55.858;37.390;2022-10-20T07:04:02;7.71;66.26
72602;DHT22;60644;55.858;37.390;2022-10-20T07:06:34;7.61;62.41
72602;DHT22;60644;55.858;37.390;2022-10-20T07:09:01;7.70;65.40
72602;DHT22;60644;55.858;37.390;2022-10-20T07:11:29;7.62;64.40
72602;DHT22;60644;55.858;37.390;2022-10-20T07:13:59;7.69;65.99
72602;DHT22;60644;55.858;37.390;2022-10-20T07:16:28;7.74;64.70
72602;DHT22;60644;55.858;37.390;2022-10-20T07:18:54;7.81;64.97
72602;DHT22;60644;55.858;37.390;2022-10-20T07:21:24;7.91;64.06
72602;DHT22;60644;55.858;37.390;2022-10-20T07:23:53;7.94;61.18
72602;DHT22;60644;55.858;37.390;2022-10-20T07:26:23;8.06;63.84
72602;DHT22;60644;55.858;37.390;2022-10-20T07:28:52;8.14;64.18
72602;DHT22;60644;55.858;37.390;2022-10-20T07:31:27;8.23;64.76
72602;DHT22;60644;55.858;37.390;2022-10-20T07:33:53;8.19;63.31
72602;DHT22;60644;55.858;37.390;2022-10-20T07:36:22;8.06;61.92
72602;DHT22;60644;55.858;37.390;2022-10-20T07:38:50;8.04;64.82
72602;DHT22;60644;55.858;37.390;2022-10-20T07:41:16;8.11;63.14
72602;DHT22;60644;55.858;37.390;2022-10-20T07:43:42;8.22;61.22
72602;DHT22;60644;55.858;37.390;2022-10-20T07:46:10;8.17;62.29
72602;DHT22;60644;55.858;37.390;2022-10-20T07:48:37;8.13;63.31
72602;DHT22;60644;55.858;37.390;2022-10-20T07:56:20;8.09;64.00
72602;DHT22;60644;55.858;37.390;2022-10-20T07:58:47;8.14;63.85
72602;DHT22;60644;55.858;37.390;2022-10-20T08:01:13;8.13;62.82
72602;DHT22;60644;55.858;37.390;2022-10-20T08:03:39;8.18;62.70
72602;DHT22;60644;55.858;37.390;2022-10-20T08:06:05;8.19;64.47
72602;DHT22;60644;55.858;37.390;2022-10-20T08:08:32;7.98;61.50
72602;DHT22;60644;55.858;37.390;2022-10-20T08:10:58;7.91;62.59
72602;DHT22;60644;55.858;37.390;2022-10-20T08:13:25;7.88;61.28
72602;DHT22;60644;55.858;37.390;2022-10-20T08:15:51;7.91;63.56
72602;DHT22;60644;55.858;37.390;2022-10-20T08:18:17;7.94;63.95
72602;DHT22;60644;55.858;37.390;2022-10-20T08:20:43;7.88;61.14
72602;DHT22;60644;55.858;37.390;2022-10-20T08:23:11;7.83;58.55
72602;DHT22;60644;55.858;37.390;2022-10-20T08:25:37;7.81;60.13
72602;DHT22;60644;55.858;37.390;2022-10-20T08:28:03;7.83;63.24
72602;DHT22;60644;55.858;37.390;2022-10-20T08:30:29;7.79;62.19
72602;DHT22;60644;55.858;37.390;2022-10-20T08:32:55;7.69;61.54
72602;DHT22;60644;55.858;37.390;2022-10-20T08:35:22;7.67;59.86
72602;DHT22;60644;55.858;37.390;2022-10-20T08:37:48;7.71;62.41
72602;DHT22;60644;55.858;37.390;2022-10-20T08:40:17;7.79;62.19
72602;DHT22;60644;55.858;37.390;2022-10-20T08:42:44;7.78;60.01
72602;DHT22;60644;55.858;37.390;2022-10-20T08:45:17;7.85;61.73
72602;DHT22;60644;55.858;37.390;2022-10-20T08:47:44;7.88;61.40
72602;DHT22;60644;55.858;37.390;2022-10-20T08:50:13;7.96;61.47
72602;DHT22;60644;55.858;37.390;2022-10-20T08:52:42;8.05;60.27
72602;DHT22;60644;55.858;37.390;2022-10-20T08:55:23;8.19;57.98
72602;DHT22;60644;55.858;37.390;2022-10-20T08:57:50;8.30;58.59
72602;DHT22;60644;55.858;37.390;2022-10-20T09:00:19;8.33;61.41
72602;DHT22;60644;55.858;37.390;2022-10-20T09:02:47;8.17;58.35
72602;DHT22;60644;55.858;37.390;2022-10-20T09:05:14;8.12;57.86
72602;DHT22;60644;55.858;37.390;2022-10-20T09:07:41;8.09;56.06
72602;DHT22;60644;55.858;37.390;2022-10-20T09:10:31;8.17;59.76
72602;DHT22;60644;55.858;37.390;2022-10-20T09:12:58;8.14;60.06
72602;DHT22;60644;55.858;37.390;2022-10-20T09:15:25;8.14;57.62
72602;DHT22;60644;55.858;37.390;2022-10-20T09:18:01;8.14;57.43
72602;DHT22;60644;55.858;37.390;2022-10-20T09:20:42;8.11;54.70
72602;DHT22;60644;55.858;37.390;2022-10-20T09:23:14;8.13;57.33
72602;DHT22;60644;55.858;37.390;2022-10-20T09:25:42;8.11;55.50
72602;DHT22;60644;55.858;37.390;2022-10-20T09:28:24;8.18;60.65
72602;DHT22;60644;55.858;37.390;2022-10-20T09:30:52;8.16;61.06
72602;DHT22;60644;55.858;37.390;2022-10-20T09:33:34;8.16;59.46
72602;DHT22;60644;55.858;37.390;2022-10-20T09:36:09;8.27;61.48
72602;DHT22;60644;55.858;37.390;2022-10-20T09:38:41;8.26;58.11
72602;DHT22;60644;55.858;37.390;2022-10-20T09:41:10;8.30;60.71
72602;DHT22;60644;55.858;37.390;2022-10-20T09:43:53;8.20;55.13
72602;DHT22;60644;55.858;37.390;2022-10-20T09:46:25;8.14;58.48
72602;DHT22;60644;55.858;37.390;2022-10-20T09:48:52;8.02;59.86
72602;DHT22;60644;55.858;37.390;2022-10-20T09:51:24;7.90;58.84
72602;DHT22;60644;55.858;37.390;2022-10-20T09:53:57;7.78;58.82
72602;DHT22;60644;55.858;37.390;2022-10-20T09:58:56;7.85;60.48
72602;DHT22;60644;55.858;37.390;2022-10-20T10:01:23;7.85;60.83
72602;DHT22;60644;55.858;37.390;2022-10-20T10:03:54;7.83;60.45
72602;DHT22;60644;55.858;37.390;2022-10-20T10:09:34;7.83;56.03
72602;DHT22;60644;55.858;37.390;2022-10-20T10:12:14;7.97;60.57
72602;DHT22;60644;55.858;37.390;2022-10-20T10:17:35;7.91;56.32
72602;DHT22;60644;55.858;37.390;2022-10-20T10:20:03;7.89;57.46
72602;DHT22;60644;55.858;37.390;2022-10-20T10:22:32;7.88;57.77
72602;DHT22;60644;55.858;37.390;2022-10-20T10:24:58;7.96;57.51
72602;DHT22;60644;55.858;37.390;2022-10-20T10:27:30;8.06;58.34
72602;DHT22;60644;55.858;37.390;2022-10-20T10:32:46;8.30;56.82
72602;DHT22;60644;55.858;37.390;2022-10-20T10:35:23;8.35;56.17
72602;DHT22;60644;55.858;37.390;2022-10-20T10:37:50;8.38;57.19
72602;DHT22;60644;55.858;37.390;2022-10-20T10:40:19;8.24;56.05
72602;DHT22;60644;55.858;37.390;2022-10-20T10:45:43;8.16;54.96
72602;DHT22;60644;55.858;37.390;2022-10-20T10:50:56;8.09;55.33
72602;DHT22;60644;55.858;37.390;2022-10-20T10:56:30;8.16;55.15
72602;DHT22;60644;55.858;37.390;2022-10-20T10:59:10;8.09;54.68
72602;DHT22;60644;55.858;37.390;2022-10-20T11:07:44;8.19;57.05
72602;DHT22;60644;55.858;37.390;2022-10-20T11:13:28;8.13;60.62
72602;DHT22;60644;55.858;37.390;2022-10-20T11:21:27;8.17;57.55
72602;DHT22;60644;55.858;37.390;2022-10-20T11:24:16;8.17;57.28
72602;DHT22;60644;55.858;37.390;2022-10-20T11:26:50;8.21;57.61
72602;DHT22;60644;55.858;37.390;2022-10-20T11:34:50;8.36;57.24
72602;DHT22;60644;55.858;37.390;2022-10-20T11:40:23;8.45;56.86
72602;DHT22;60644;55.858;37.390;2022-10-20T11:43:03;8.46;58.79
72602;DHT22;60644;55.858;37.390;2022-10-20T11:50:51;8.35;56.93
72602;DHT22;60644;55.858;37.390;2022-10-20T12:01:02;8.66;55.63
72602;DHT22;60644;55.858;37.390;2022-10-20T12:19:27;8.67;53.92
72602;DHT22;60644;55.858;37.390;2022-10-20T12:21:57;8.42;53.42
72602;DHT22;60644;55.858;37.390;2022-10-20T12:24:30;8.36;54.87
72602;DHT22;60644;55.858;37.390;2022-10-20T12:34:59;8.03;57.24
72602;DHT22;60644;55.858;37.390;2022-10-20T12:39:56;8.09;60.18
72602;DHT22;60644;55.858;37.390;2022-10-20T12:42:29;7.97;58.94
72602;DHT22;60644;55.858;37.390;2022-10-20T12:45:35;7.91;60.40
72602;DHT22;60644;55.858;37.390;2022-10-20T12:47:58;7.85;58.62
72602;DHT22;60644;55.858;37.390;2022-10-20T12:50:40;7.84;57.29
72602;DHT22;60644;55.858;37.390;2022-10-20T12:53:10;7.88;57.95
72602;DHT22;60644;55.858;37.390;2022-10-20T12:55:38;7.93;57.27
72602;DHT22;60644;55.858;37.390;2022-10-20T13:16:50;7.99;56.36
72602;DHT22;60644;55.858;37.390;2022-10-20T13:19:47;7.94;55.71
72602;DHT22;60644;55.858;37.390;2022-10-20T13:22:46;7.85;55.71
72602;DHT22;60644;55.858;37.390;2022-10-20T13:25:45;7.82;56.83
72602;DHT22;60644;55.858;37.390;2022-10-20T13:28:14;7.81;56.66
72602;DHT22;60644;55.858;37.390;2022-10-20T13:36:17;7.74;56.86
72602;DHT22;60644;55.858;37.390;2022-10-20T13:39:01;7.71;57.76
72602;DHT22;60644;55.858;37.390;2022-10-20T13:41:35;7.74;57.82
72602;DHT22;60644;55.858;37.390;2022-10-20T13:44:38;7.78;56.94
72602;DHT22;60644;55.858;37.390;2022-10-20T13:47:27;7.81;58.08
72602;DHT22;60644;55.858;37.390;2022-10-20T13:50:20;7.77;58.50
72602;DHT22;60644;55.858;37.390;2022-10-20T13:52:52;7.78;58.63
72602;DHT22;60644;55.858;37.390;2022-10-20T13:55:25;7.76;58.40
72602;DHT22;60644;55.858;37.390;2022-10-20T13:58:05;7.64;57.80
72602;DHT22;60644;55.858;37.390;2022-10-20T14:00:33;7.57;58.13
72602;DHT22;60644;55.858;37.390;2022-10-20T14:03:03;7.44;58.47
72602;DHT22;60644;55.858;37.390;2022-10-20T14:05:36;7.41;58.80
72602;DHT22;60644;55.858;37.390;2022-10-20T14:08:07;7.24;59.00
72602;DHT22;60644;55.858;37.390;2022-10-20T14:10:41;7.13;59.59
72602;DHT22;60644;55.858;37.390;2022-10-20T14:13:12;7.12;59.89
72602;DHT22;60644;55.858;37.390;2022-10-20T14:15:43;7.04;59.74
72602;DHT22;60644;55.858;37.390;2022-10-20T14:18:23;6.97;60.12
72602;DHT22;60644;55.858;37.390;2022-10-20T14:20:59;6.97;60.30
72602;DHT22;60644;55.858;37.390;2022-10-20T14:23:33;6.82;60.39
72602;DHT22;60644;55.858;37.390;2022-10-20T14:26:01;6.76;60.54
72602;DHT22;60644;55.858;37.390;2022-10-20T14:28:30;6.74;60.22
72602;DHT22;60644;55.858;37.390;2022-10-20T14:30:57;6.69;60.47
72602;DHT22;60644;55.858;37.390;2022-10-20T14:33:24;6.68;60.47
72602;DHT22;60644;55.858;37.390;2022-10-20T14:35:53;6.66;60.74
72602;DHT22;60644;55.858;37.390;2022-10-20T14:38:32;6.63;60.99
72602;DHT22;60644;55.858;37.390;2022-10-20T14:41:00;6.63;61.10
72602;DHT22;60644;55.858;37.390;2022-10-20T14:46:02;6.43;61.72
72602;DHT22;60644;55.858;37.390;2022-10-20T14:48:37;6.41;61.79
72602;DHT22;60644;55.858;37.390;2022-10-20T14:51:28;6.36;61.65
72602;DHT22;60644;55.858;37.390;2022-10-20T14:56:51;6.17;61.79
72602;DHT22;60644;55.858;37.390;2022-10-20T14:59:20;6.05;62.21
72602;DHT22;60644;55.858;37.390;2022-10-20T15:04:27;6.04;62.31
72602;DHT22;60644;55.858;37.390;2022-10-20T15:09:46;5.96;62.05
72602;DHT22;60644;55.858;37.390;2022-10-20T15:17:34;6.07;61.90
72602;DHT22;60644;55.858;37.390;2022-10-20T15:23:16;6.12;61.60
72602;DHT22;60644;55.858;37.390;2022-10-20T15:26:03;6.06;61.41
72602;DHT22;60644;55.858;37.390;2022-10-20T15:30:57;5.94;61.12
72602;DHT22;60644;55.858;37.390;2022-10-20T15:33:24;5.86;61.01
72602;DHT22;60644;55.858;37.390;2022-10-20T15:35:50;5.87;61.41
72602;DHT22;60644;55.858;37.390;2022-10-20T15:38:17;5.89;60.55
72602;DHT22;60644;55.858;37.390;2022-10-20T15:40:43;5.93;61.02
72602;DHT22;60644;55.858;37.390;2022-10-20T15:43:14;5.94;60.46
72602;DHT22;60644;55.858;37.390;2022-10-20T15:45:43;5.90;60.02
72602;DHT22;60644;55.858;37.390;2022-10-20T15:48:09;5.83;59.41
72602;DHT22;60644;55.858;37.390;2022-10-20T15:50:36;5.72;59.36
72602;DHT22;60644;55.858;37.390;2022-10-20T15:53:03;5.41;59.00
72602;DHT22;60644;55.858;37.390;2022-10-20T15:55:31;5.50;59.26
72602;DHT22;60644;55.858;37.390;2022-10-20T15:57:58;5.52;59.56
72602;DHT22;60644;55.858;37.390;2022-10-20T16:00:25;5.55;59.35
72602;DHT22;60644;55.858;37.390;2022-10-20T16:02:51;5.52;59.54
72602;DHT22;60644;55.858;37.390;2022-10-20T16:05:19;5.53;60.03
72602;DHT22;60644;55.858;37.390;2022-10-20T16:07:46;5.64;60.41
72602;DHT22;60644;55.858;37.390;2022-10-20T16:10:12;5.71;60.15
72602;DHT22;60644;55.858;37.390;2022-10-20T16:12:38;5.79;60.25
72602;DHT22;60644;55.858;37.390;2022-10-20T16:15:09;5.85;60.35
72602;DHT22;60644;55.858;37.390;2022-10-20T16:17:35;5.89;60.63
72602;DHT22;60644;55.858;37.390;2022-10-20T16:20:02;5.90;60.67
72602;DHT22;60644;55.858;37.390;2022-10-20T16:22:29;5.81;60.15
72602;DHT22;60644;55.858;37.390;2022-10-20T16:24:55;5.77;60.83
72602;DHT22;60644;55.858;37.390;2022-10-20T16:27:21;5.78;60.66
72602;DHT22;60644;55.858;37.390;2022-10-20T16:29:49;5.76;60.20
72602;DHT22;60644;55.858;37.390;2022-10-20T16:32:15;5.75;60.51
72602;DHT22;60644;55.858;37.390;2022-10-20T16:34:40;5.70;62.08
72602;DHT22;60644;55.858;37.390;2022-10-20T16:37:07;5.63;61.20
72602;DHT22;60644;55.858;37.390;2022-10-20T16:39:32;5.63;60.62
72602;DHT22;60644;55.858;37.390;2022-10-20T16:41:58;5.57;61.38
72602;DHT22;60644;55.858;37.390;2022-10-20T16:44:24;5.59;61.76
72602;DHT22;60644;55.858;37.390;2022-10-20T16:46:50;5.52;62.06
72602;DHT22;60644;55.858;37.390;2022-10-20T16:49:16;5.43;61.70
72602;DHT22;60644;55.858;37.390;2022-10-20T16:51:41;5.40;62.03
72602;DHT22;60644;55.858;37.390;2022-10-20T16:54:07;5.39;60.84
72602;DHT22;60644;55.858;37.390;2022-10-20T16:56:33;5.32;60.40
72602;DHT22;60644;55.858;37.390;2022-10-20T16:58:59;5.33;60.55
72602;DHT22;60644;55.858;37.390;2022-10-20T17:01:26;5.37;60.40
72602;DHT22;60644;55.858;37.390;2022-10-20T17:03:52;5.41;60.86
72602;DHT22;60644;55.858;37.390;2022-10-20T17:06:21;5.47;60.12
72602;DHT22;60644;55.858;37.390;2022-10-20T17:08:47;5.41;60.00
72602;DHT22;60644;55.858;37.390;2022-10-20T17:11:22;5.42;60.43
72602;DHT22;60644;55.858;37.390;2022-10-20T17:13:49;5.50;60.94
72602;DHT22;60644;55.858;37.390;2022-10-20T17:16:17;5.47;60.35
72602;DHT22;60644;55.858;37.390;2022-10-20T17:18:44;5.47;60.20
72602;DHT22;60644;55.858;37.390;2022-10-20T17:21:11;5.46;59.70
72602;DHT22;60644;55.858;37.390;2022-10-20T17:23:42;5.40;60.20
72602;DHT22;60644;55.858;37.390;2022-10-20T17:26:15;5.43;60.27
72602;DHT22;60644;55.858;37.390;2022-10-20T17:28:42;5.47;60.31
72602;DHT22;60644;55.858;37.390;2022-10-20T17:31:10;5.47;60.31
72602;DHT22;60644;55.858;37.390;2022-10-20T17:33:37;5.46;60.44
72602;DHT22;60644;55.858;37.390;2022-10-20T17:36:04;5.43;60.35
72602;DHT22;60644;55.858;37.390;2022-10-20T17:38:34;5.46;60.28
72602;DHT22;60644;55.858;37.390;2022-10-20T17:41:08;5.47;60.35
72602;DHT22;60644;55.858;37.390;2022-10-20T17:43:34;5.46;60.25
72602;DHT22;60644;55.858;37.390;2022-10-20T17:46:06;5.34;58.93
72602;DHT22;60644;55.858;37.390;2022-10-20T17:48:34;5.05;58.82
72602;DHT22;60644;55.858;37.390;2022-10-20T17:51:05;4.95;59.66
72602;DHT22;60644;55.858;37.390;2022-10-20T17:53:35;4.97;60.06
72602;DHT22;60644;55.858;37.390;2022-10-20T17:56:08;4.83;59.85
72602;DHT22;60644;55.858;37.390;2022-10-20T17:58:35;4.76;59.96
72602;DHT22;60644;55.858;37.390;2022-10-20T18:03:37;4.60;60.06
72602;DHT22;60644;55.858;37.390;2022-10-20T18:06:07;4.54;60.85
72602;DHT22;60644;55.858;37.390;2022-10-20T18:08:35;4.51;60.25
72602;DHT22;60644;55.858;37.390;2022-10-20T18:11:02;4.51;60.83
72602;DHT22;60644;55.858;37.390;2022-10-20T18:13:33;4.63;60.84
72602;DHT22;60644;55.858;37.390;2022-10-20T18:16:03;4.72;60.44
72602;DHT22;60644;55.858;37.390;2022-10-20T18:18:29;4.68;60.27
72602;DHT22;60644;55.858;37.390;2022-10-20T18:20:56;4.78;60.31
72602;DHT22;60644;55.858;37.390;2022-10-20T18:23:22;4.79;59.51